sensor_id;sensor_type;location;lat;lon;timestamp;P1;durP1;ratioP1;P2;durP2;ratioP2
13849;SDS011;6995;52.618;13.488;2022-10-16T00:00:44;23.88;;;22.67;;
13849;SDS011;6995;52.618;13.488;2022-10-16T00:03:10;22.75;;;21.55;;
13849;SDS011;6995;52.618;13.488;2022-10-16T00:05:41;24.80;;;23.15;;
13849;SDS011;6995;52.618;13.488;2022-10-16T00:08:08;24.00;;;22.75;;
13849;SDS011;6995;52.618;13.488;2022-10-16T00:10:34;22.15;;;20.95;;
13849;SDS011;6995;52.618;13.488;2022-10-16T00:13:01;24.05;;;22.77;;
13849;SDS011;6995;52.618;13.488;2022-10-16T00:15:27;22.48;;;21.15;;
13849;SDS011;6995;52.618;13.488;2022-10-16T00:17:52;21.60;;;20.50;;
13849;SDS011;6995;52.618;13.488;2022-10-16T00:20:18;24.08;;;22.55;;
13849;SDS011;6995;52.618;13.488;2022-10-16T00:22:43;26.38;;;25.05;;
13849;SDS011;6995;52.618;13.488;2022-10-16T00:25:09;26.40;;;24.88;;
13849;SDS011;6995;52.618;13.488;2022-10-16T00:27:35;25.58;;;24.23;;
13849;SDS011;6995;52.618;13.488;2022-10-16T00:30:00;27.30;;;26.00;;
13849;SDS011;6995;52.618;13.488;2022-10-16T00:32:26;25.40;;;24.10;;
13849;SDS011;6995;52.618;13.488;2022-10-16T00:34:52;28.13;;;26.55;;
13849;SDS011;6995;52.618;13.488;2022-10-16T00:37:19;25.73;;;24.52;;
13849;SDS011;6995;52.618;13.488;2022-10-16T00:39:46;25.48;;;24.27;;
13849;SDS011;6995;52.618;13.488;2022-10-16T00:42:15;28.42;;;27.02;;
13849;SDS011;6995;52.618;13.488;2022-10-16T00:44:49;28.48;;;26.83;;
13849;SDS011;6995;52.618;13.488;2022-10-16T00:47:19;26.15;;;24.88;;
13849;SDS011;6995;52.618;13.488;2022-10-16T00:49:47;24.35;;;23.23;;
13849;SDS011;6995;52.618;13.488;2022-10-16T00:52:16;26.00;;;24.80;;
13849;SDS011;6995;52.618;13.488;2022-10-16T00:54:42;25.02;;;23.85;;
13849;SDS011;6995;52.618;13.488;2022-10-16T00:57:09;26.30;;;24.80;;
13849;SDS011;6995;52.618;13.488;2022-10-16T00:59:37;26.70;;;25.50;;
13849;SDS011;6995;52.618;13.488;2022-10-16T01:02:08;24.60;;;23.40;;
13849;SDS011;6995;52.618;13.488;2022-10-16T01:04:42;24.20;;;23.10;;
13849;SDS011;6995;52.618;13.488;2022-10-16T01:15:41;25.33;;;24.02;;
13849;SDS011;6995;52.618;13.488;2022-10-16T01:21:09;23.27;;;22.17;;
13849;SDS011;6995;52.618;13.488;2022-10-16T01:29:29;25.45;;;24.25;;
13849;SDS011;6995;52.618;13.488;2022-10-16T01:32:00;22.77;;;21.65;;
13849;SDS011;6995;52.618;13.488;2022-10-16T01:34:39;23.83;;;22.55;;
13849;SDS011;6995;52.618;13.488;2022-10-16T01:37:13;23.48;;;22.38;;
13849;SDS011;6995;52.618;13.488;2022-10-16T01:39:45;24.08;;;22.88;;
13849;SDS011;6995;52.618;13.488;2022-10-16T01:42:20;25.50;;;24.40;;
13849;SDS011;6995;52.618;13.488;2022-10-16T01:44:49;24.05;;;23.05;;
13849;SDS011;6995;52.618;13.488;2022-10-16T01:47:17;23.98;;;22.95;;
13849;SDS011;6995;52.618;13.488;2022-10-16T01:49:46;22.50;;;21.50;;
13849;SDS011;6995;52.618;13.488;2022-10-16T01:52:14;24.98;;;23.88;;
13849;SDS011;6995;52.618;13.488;2022-10-16T01:54:43;24.95;;;23.88;;
13849;SDS011;6995;52.618;13.488;2022-10-16T01:57:12;25.85;;;24.70;;
13849;SDS011;6995;52.618;13.488;2022-10-16T01:59:44;23.50;;;22.20;;
13849;SDS011;6995;52.618;13.488;2022-10-16T02:02:13;24.98;;;23.88;;
13849;SDS011;6995;52.618;13.488;2022-10-16T02:04:46;24.50;;;23.30;;
13849;SDS011;6995;52.618;13.488;2022-10-16T02:07:18;21.95;;;20.95;;
13849;SDS011;6995;52.618;13.488;2022-10-16T02:09:43;25.15;;;23.95;;
13849;SDS011;6995;52.618;13.488;2022-10-16T02:12:18;23.95;;;22.75;;
13849;SDS011;6995;52.618;13.488;2022-10-16T02:14:51;25.70;;;24.50;;
13849;SDS011;6995;52.618;13.488;2022-10-16T02:17:17;26.75;;;25.30;;
13849;SDS011;6995;52.618;13.488;2022-10-16T02:19:43;24.63;;;23.42;;
13849;SDS011;6995;52.618;13.488;2022-10-16T02:22:19;23.70;;;22.60;;
13849;SDS011;6995;52.618;13.488;2022-10-16T02:30:07;26.98;;;25.58;;
13849;SDS011;6995;52.618;13.488;2022-10-16T02:32:45;24.27;;;23.08;;
13849;SDS011;6995;52.618;13.488;2022-10-16T02:35:13;27.30;;;26.00;;
13849;SDS011;6995;52.618;13.488;2022-10-16T02:37:42;27.27;;;26.08;;
13849;SDS011;6995;52.618;13.488;2022-10-16T02:40:08;29.30;;;27.90;;
13849;SDS011;6995;52.618;13.488;2022-10-16T02:42:35;26.13;;;24.85;;
13849;SDS011;6995;52.618;13.488;2022-10-16T02:45:03;24.80;;;23.70;;
13849;SDS011;6995;52.618;13.488;2022-10-16T02:47:30;25.92;;;24.83;;
13849;SDS011;6995;52.618;13.488;2022-10-16T02:49:55;24.00;;;22.85;;
13849;SDS011;6995;52.618;13.488;2022-10-16T02:52:21;27.05;;;25.73;;
13849;SDS011;6995;52.618;13.488;2022-10-16T02:54:47;23.67;;;22.65;;
13849;SDS011;6995;52.618;13.488;2022-10-16T02:57:12;24.48;;;22.92;;
13849;SDS011;6995;52.618;13.488;2022-10-16T02:59:38;25.30;;;24.10;;
13849;SDS011;6995;52.618;13.488;2022-10-16T03:02:04;22.50;;;21.48;;
13849;SDS011;6995;52.618;13.488;2022-10-16T03:04:29;24.95;;;23.88;;
13849;SDS011;6995;52.618;13.488;2022-10-16T03:06:55;25.08;;;23.95;;
13849;SDS011;6995;52.618;13.488;2022-10-16T03:09:21;24.48;;;23.48;;
13849;SDS011;6995;52.618;13.488;2022-10-16T03:11:46;23.50;;;22.30;;
13849;SDS011;6995;52.618;13.488;2022-10-16T03:14:12;24.15;;;22.85;;
13849;SDS011;6995;52.618;13.488;2022-10-16T03:16:38;24.13;;;23.08;;
13849;SDS011;6995;52.618;13.488;2022-10-16T03:19:03;23.33;;;22.33;;
13849;SDS011;6995;52.618;13.488;2022-10-16T03:21:29;23.42;;;22.42;;
13849;SDS011;6995;52.618;13.488;2022-10-16T03:23:55;26.35;;;25.15;;
13849;SDS011;6995;52.618;13.488;2022-10-16T03:26:20;24.02;;;22.85;;
13849;SDS011;6995;52.618;13.488;2022-10-16T03:28:46;26.98;;;25.77;;
13849;SDS011;6995;52.618;13.488;2022-10-16T03:31:12;26.48;;;25.30;;
13849;SDS011;6995;52.618;13.488;2022-10-16T03:33:37;26.15;;;24.95;;
13849;SDS011;6995;52.618;13.488;2022-10-16T03:36:03;27.27;;;26.08;;
13849;SDS011;6995;52.618;13.488;2022-10-16T03:38:29;23.63;;;22.63;;
13849;SDS011;6995;52.618;13.488;2022-10-16T03:40:54;24.15;;;22.90;;
13849;SDS011;6995;52.618;13.488;2022-10-16T03:43:20;22.90;;;21.73;;
13849;SDS011;6995;52.618;13.488;2022-10-16T03:45:46;24.63;;;23.52;;
13849;SDS011;6995;52.618;13.488;2022-10-16T03:48:11;24.48;;;23.30;;
13849;SDS011;6995;52.618;13.488;2022-10-16T03:50:37;23.35;;;22.25;;
13849;SDS011;6995;52.618;13.488;2022-10-16T03:53:03;21.27;;;20.27;;
13849;SDS011;6995;52.618;13.488;2022-10-16T03:55:28;22.25;;;21.20;;
13849;SDS011;6995;52.618;13.488;2022-10-16T03:57:54;20.23;;;19.20;;
13849;SDS011;6995;52.618;13.488;2022-10-16T04:00:20;21.13;;;20.15;;
13849;SDS011;6995;52.618;13.488;2022-10-16T04:02:45;20.90;;;19.90;;
13849;SDS011;6995;52.618;13.488;2022-10-16T04:05:11;21.33;;;20.33;;
13849;SDS011;6995;52.618;13.488;2022-10-16T04:07:36;20.33;;;19.35;;
13849;SDS011;6995;52.618;13.488;2022-10-16T04:10:03;22.58;;;21.58;;
13849;SDS011;6995;52.618;13.488;2022-10-16T04:12:29;21.45;;;20.23;;
13849;SDS011;6995;52.618;13.488;2022-10-16T04:14:55;22.15;;;21.10;;
13849;SDS011;6995;52.618;13.488;2022-10-16T04:17:20;21.15;;;20.10;;
13849;SDS011;6995;52.618;13.488;2022-10-16T04:19:46;23.02;;;21.83;;
13849;SDS011;6995;52.618;13.488;2022-10-16T04:22:12;21.92;;;20.83;;
13849;SDS011;6995;52.618;13.488;2022-10-16T04:24:38;23.95;;;22.85;;
13849;SDS011;6995;52.618;13.488;2022-10-16T04:27:04;22.02;;;21.02;;
13849;SDS011;6995;52.618;13.488;2022-10-16T04:29:29;23.10;;;22.02;;
13849;SDS011;6995;52.618;13.488;2022-10-16T04:31:55;23.17;;;22.02;;
13849;SDS011;6995;52.618;13.488;2022-10-16T04:34:21;20.35;;;19.35;;
13849;SDS011;6995;52.618;13.488;2022-10-16T04:36:47;22.48;;;21.38;;
13849;SDS011;6995;52.618;13.488;2022-10-16T04:39:14;22.10;;;21.10;;
13849;SDS011;6995;52.618;13.488;2022-10-16T04:41:40;21.40;;;20.40;;
13849;SDS011;6995;52.618;13.488;2022-10-16T04:44:05;22.42;;;21.33;;
13849;SDS011;6995;52.618;13.488;2022-10-16T04:46:31;21.50;;;20.40;;
13849;SDS011;6995;52.618;13.488;2022-10-16T04:48:57;23.23;;;22.03;;
13849;SDS011;6995;52.618;13.488;2022-10-16T04:51:23;22.25;;;21.25;;
13849;SDS011;6995;52.618;13.488;2022-10-16T04:53:48;23.65;;;22.55;;
13849;SDS011;6995;52.618;13.488;2022-10-16T04:56:14;24.50;;;23.40;;
13849;SDS011;6995;52.618;13.488;2022-10-16T04:58:40;23.13;;;22.02;;
13849;SDS011;6995;52.618;13.488;2022-10-16T05:01:06;22.92;;;21.77;;
13849;SDS011;6995;52.618;13.488;2022-10-16T05:03:31;24.53;;;23.40;;
13849;SDS011;6995;52.618;13.488;2022-10-16T05:05:57;22.10;;;21.10;;
13849;SDS011;6995;52.618;13.488;2022-10-16T05:08:23;23.10;;;22.00;;
13849;SDS011;6995;52.618;13.488;2022-10-16T05:10:48;21.67;;;20.45;;
13849;SDS011;6995;52.618;13.488;2022-10-16T05:13:14;24.10;;;22.80;;
13849;SDS011;6995;52.618;13.488;2022-10-16T05:15:40;21.15;;;20.05;;
13849;SDS011;6995;52.618;13.488;2022-10-16T05:18:05;23.45;;;22.38;;
13849;SDS011;6995;52.618;13.488;2022-10-16T05:20:31;22.93;;;21.70;;
13849;SDS011;6995;52.618;13.488;2022-10-16T05:22:57;24.15;;;23.05;;
13849;SDS011;6995;52.618;13.488;2022-10-16T05:25:22;23.13;;;21.92;;
13849;SDS011;6995;52.618;13.488;2022-10-16T05:27:49;23.27;;;22.17;;
13849;SDS011;6995;52.618;13.488;2022-10-16T05:30:15;24.70;;;23.50;;
13849;SDS011;6995;52.618;13.488;2022-10-16T05:32:45;23.67;;;22.53;;
13849;SDS011;6995;52.618;13.488;2022-10-16T05:35:12;22.48;;;21.33;;
13849;SDS011;6995;52.618;13.488;2022-10-16T05:37:37;24.27;;;22.92;;
13849;SDS011;6995;52.618;13.488;2022-10-16T05:40:03;24.85;;;23.50;;
13849;SDS011;6995;52.618;13.488;2022-10-16T05:42:29;23.47;;;22.27;;
13849;SDS011;6995;52.618;13.488;2022-10-16T05:44:55;22.90;;;21.83;;
13849;SDS011;6995;52.618;13.488;2022-10-16T05:47:21;24.88;;;23.63;;
13849;SDS011;6995;52.618;13.488;2022-10-16T05:49:47;21.42;;;20.33;;
13849;SDS011;6995;52.618;13.488;2022-10-16T05:52:12;22.53;;;21.43;;
13849;SDS011;6995;52.618;13.488;2022-10-16T05:54:38;24.23;;;23.02;;
13849;SDS011;6995;52.618;13.488;2022-10-16T05:57:04;22.98;;;21.75;;
13849;SDS011;6995;52.618;13.488;2022-10-16T05:59:30;24.27;;;23.08;;
13849;SDS011;6995;52.618;13.488;2022-10-16T06:01:56;24.73;;;23.23;;
13849;SDS011;6995;52.618;13.488;2022-10-16T06:04:22;24.55;;;23.45;;
13849;SDS011;6995;52.618;13.488;2022-10-16T06:06:48;21.73;;;20.52;;
13849;SDS011;6995;52.618;13.488;2022-10-16T06:09:13;22.65;;;21.45;;
13849;SDS011;6995;52.618;13.488;2022-10-16T06:11:39;23.45;;;22.35;;
13849;SDS011;6995;52.618;13.488;2022-10-16T06:14:05;21.20;;;20.10;;
13849;SDS011;6995;52.618;13.488;2022-10-16T06:16:34;22.50;;;21.30;;
13849;SDS011;6995;52.618;13.488;2022-10-16T06:19:01;23.38;;;22.17;;
13849;SDS011;6995;52.618;13.488;2022-10-16T06:21:31;25.25;;;23.92;;
13849;SDS011;6995;52.618;13.488;2022-10-16T06:23:57;22.98;;;21.88;;
13849;SDS011;6995;52.618;13.488;2022-10-16T06:26:24;22.42;;;21.40;;
13849;SDS011;6995;52.618;13.488;2022-10-16T06:28:51;23.83;;;22.73;;
13849;SDS011;6995;52.618;13.488;2022-10-16T06:31:18;23.77;;;22.58;;
13849;SDS011;6995;52.618;13.488;2022-10-16T06:33:44;26.83;;;25.00;;
13849;SDS011;6995;52.618;13.488;2022-10-16T06:36:12;24.35;;;23.17;;
13849;SDS011;6995;52.618;13.488;2022-10-16T06:38:40;25.08;;;23.88;;
13849;SDS011;6995;52.618;13.488;2022-10-16T06:41:07;26.60;;;25.30;;
13849;SDS011;6995;52.618;13.488;2022-10-16T06:43:34;24.27;;;23.08;;
13849;SDS011;6995;52.618;13.488;2022-10-16T06:46:00;31.30;;;29.60;;
13849;SDS011;6995;52.618;13.488;2022-10-16T06:48:27;33.78;;;32.03;;
13849;SDS011;6995;52.618;13.488;2022-10-16T06:53:34;38.42;;;36.72;;
13849;SDS011;6995;52.618;13.488;2022-10-16T06:56:14;27.85;;;26.58;;
13849;SDS011;6995;52.618;13.488;2022-10-16T06:58:45;32.67;;;31.05;;
13849;SDS011;6995;52.618;13.488;2022-10-16T07:01:12;32.03;;;30.42;;
13849;SDS011;6995;52.618;13.488;2022-10-16T07:03:38;31.90;;;30.40;;
13849;SDS011;6995;52.618;13.488;2022-10-16T07:06:06;30.15;;;28.75;;
13849;SDS011;6995;52.618;13.488;2022-10-16T07:08:37;34.55;;;32.95;;
13849;SDS011;6995;52.618;13.488;2022-10-16T07:11:05;32.45;;;30.95;;
13849;SDS011;6995;52.618;13.488;2022-10-16T07:13:35;31.92;;;30.42;;
13849;SDS011;6995;52.618;13.488;2022-10-16T07:16:09;37.10;;;35.10;;
13849;SDS011;6995;52.618;13.488;2022-10-16T07:18:36;30.65;;;29.25;;
13849;SDS011;6995;52.618;13.488;2022-10-16T07:23:38;37.95;;;36.08;;
13849;SDS011;6995;52.618;13.488;2022-10-16T07:26:05;39.67;;;37.88;;
13849;SDS011;6995;52.618;13.488;2022-10-16T07:28:31;44.00;;;41.92;;
13849;SDS011;6995;52.618;13.488;2022-10-16T07:31:04;35.40;;;33.80;;
13849;SDS011;6995;52.618;13.488;2022-10-16T07:33:39;29.95;;;28.55;;
13849;SDS011;6995;52.618;13.488;2022-10-16T07:36:06;26.92;;;25.73;;
13849;SDS011;6995;52.618;13.488;2022-10-16T07:38:32;34.17;;;32.47;;
13849;SDS011;6995;52.618;13.488;2022-10-16T07:41:02;26.48;;;25.27;;
13849;SDS011;6995;52.618;13.488;2022-10-16T07:43:29;26.10;;;24.90;;
13849;SDS011;6995;52.618;13.488;2022-10-16T07:45:56;27.65;;;26.40;;
13849;SDS011;6995;52.618;13.488;2022-10-16T07:48:22;30.35;;;28.85;;
13849;SDS011;6995;52.618;13.488;2022-10-16T07:50:49;38.97;;;37.17;;
13849;SDS011;6995;52.618;13.488;2022-10-16T07:53:15;35.65;;;33.95;;
13849;SDS011;6995;52.618;13.488;2022-10-16T07:55:41;29.98;;;28.45;;
13849;SDS011;6995;52.618;13.488;2022-10-16T07:58:07;34.88;;;33.17;;
13849;SDS011;6995;52.618;13.488;2022-10-16T08:00:33;34.85;;;33.20;;
13849;SDS011;6995;52.618;13.488;2022-10-16T08:03:00;30.55;;;28.98;;
13849;SDS011;6995;52.618;13.488;2022-10-16T08:05:29;31.90;;;30.20;;
13849;SDS011;6995;52.618;13.488;2022-10-16T08:07:56;27.80;;;26.55;;
13849;SDS011;6995;52.618;13.488;2022-10-16T08:10:23;40.60;;;38.70;;
13849;SDS011;6995;52.618;13.488;2022-10-16T08:12:50;29.30;;;27.98;;
13849;SDS011;6995;52.618;13.488;2022-10-16T08:15:17;28.45;;;26.80;;
13849;SDS011;6995;52.618;13.488;2022-10-16T08:17:43;27.90;;;26.70;;
13849;SDS011;6995;52.618;13.488;2022-10-16T08:20:09;31.38;;;29.98;;
13849;SDS011;6995;52.618;13.488;2022-10-16T08:22:35;29.33;;;27.83;;
13849;SDS011;6995;52.618;13.488;2022-10-16T08:25:01;32.65;;;31.10;;
13849;SDS011;6995;52.618;13.488;2022-10-16T08:27:31;26.27;;;24.80;;
13849;SDS011;6995;52.618;13.488;2022-10-16T08:29:57;28.45;;;27.05;;
13849;SDS011;6995;52.618;13.488;2022-10-16T08:32:23;29.05;;;27.65;;
13849;SDS011;6995;52.618;13.488;2022-10-16T08:34:48;24.92;;;23.60;;
13849;SDS011;6995;52.618;13.488;2022-10-16T08:37:14;26.42;;;25.13;;
13849;SDS011;6995;52.618;13.488;2022-10-16T08:39:40;28.77;;;27.23;;
13849;SDS011;6995;52.618;13.488;2022-10-16T08:42:15;32.05;;;30.65;;
13849;SDS011;6995;52.618;13.488;2022-10-16T08:47:23;33.17;;;31.70;;
13849;SDS011;6995;52.618;13.488;2022-10-16T08:50:10;29.17;;;27.58;;
13849;SDS011;6995;52.618;13.488;2022-10-16T08:52:39;27.83;;;26.33;;
13849;SDS011;6995;52.618;13.488;2022-10-16T08:55:08;28.95;;;27.45;;
13849;SDS011;6995;52.618;13.488;2022-10-16T08:57:55;34.97;;;33.47;;
13849;SDS011;6995;52.618;13.488;2022-10-16T09:00:21;35.28;;;33.53;;
13849;SDS011;6995;52.618;13.488;2022-10-16T09:08:43;31.38;;;29.98;;
13849;SDS011;6995;52.618;13.488;2022-10-16T09:11:39;26.52;;;25.23;;
13849;SDS011;6995;52.618;13.488;2022-10-16T09:17:26;23.98;;;22.98;;
13849;SDS011;6995;52.618;13.488;2022-10-16T09:19:53;22.73;;;21.63;;
13849;SDS011;6995;52.618;13.488;2022-10-16T09:22:41;31.02;;;29.60;;
13849;SDS011;6995;52.618;13.488;2022-10-16T09:25:10;34.30;;;32.70;;
13849;SDS011;6995;52.618;13.488;2022-10-16T09:27:38;28.45;;;26.73;;
13849;SDS011;6995;52.618;13.488;2022-10-16T09:30:12;28.50;;;26.90;;
13849;SDS011;6995;52.618;13.488;2022-10-16T09:32:39;26.95;;;25.70;;
13849;SDS011;6995;52.618;13.488;2022-10-16T09:35:11;29.13;;;27.73;;
13849;SDS011;6995;52.618;13.488;2022-10-16T09:37:42;26.63;;;25.13;;
13849;SDS011;6995;52.618;13.488;2022-10-16T09:40:13;29.23;;;27.92;;
13849;SDS011;6995;52.618;13.488;2022-10-16T09:43:07;28.00;;;26.15;;
13849;SDS011;6995;52.618;13.488;2022-10-16T09:45:53;23.77;;;22.73;;
13849;SDS011;6995;52.618;13.488;2022-10-16T09:48:46;24.52;;;23.33;;
13849;SDS011;6995;52.618;13.488;2022-10-16T09:51:28;27.45;;;25.88;;
13849;SDS011;6995;52.618;13.488;2022-10-16T09:53:55;26.30;;;25.20;;
13849;SDS011;6995;52.618;13.488;2022-10-16T09:56:26;26.38;;;24.92;;
13849;SDS011;6995;52.618;13.488;2022-10-16T09:58:58;26.52;;;25.23;;
13849;SDS011;6995;52.618;13.488;2022-10-16T10:01:30;26.48;;;25.17;;
13849;SDS011;6995;52.618;13.488;2022-10-16T10:04:02;26.00;;;24.70;;
13849;SDS011;6995;52.618;13.488;2022-10-16T10:06:29;28.33;;;26.92;;
13849;SDS011;6995;52.618;13.488;2022-10-16T10:14:27;35.22;;;33.33;;
13849;SDS011;6995;52.618;13.488;2022-10-16T10:17:45;34.63;;;33.03;;
13849;SDS011;6995;52.618;13.488;2022-10-16T11:08:45;26.05;;;24.83;;
13849;SDS011;6995;52.618;13.488;2022-10-16T11:11:29;25.08;;;23.98;;
13849;SDS011;6995;52.618;13.488;2022-10-16T11:16:39;29.08;;;27.77;;
13849;SDS011;6995;52.618;13.488;2022-10-16T11:21:49;32.33;;;30.55;;
13849;SDS011;6995;52.618;13.488;2022-10-16T11:27:12;26.20;;;24.92;;
13849;SDS011;6995;52.618;13.488;2022-10-16T11:29:46;28.77;;;27.58;;
13849;SDS011;6995;52.618;13.488;2022-10-16T11:32:30;30.92;;;29.40;;
13849;SDS011;6995;52.618;13.488;2022-10-16T11:35:11;28.48;;;26.92;;
13849;SDS011;6995;52.618;13.488;2022-10-16T11:37:44;30.00;;;28.67;;
13849;SDS011;6995;52.618;13.488;2022-10-16T11:40:22;26.92;;;25.73;;
13849;SDS011;6995;52.618;13.488;2022-10-16T11:45:49;29.38;;;28.08;;
13849;SDS011;6995;52.618;13.488;2022-10-16T11:48:25;26.70;;;25.40;;
13849;SDS011;6995;52.618;13.488;2022-10-16T11:56:33;27.92;;;26.67;;
13849;SDS011;6995;52.618;13.488;2022-10-16T11:59:05;29.30;;;27.77;;
13849;SDS011;6995;52.618;13.488;2022-10-16T12:01:36;30.45;;;28.58;;
13849;SDS011;6995;52.618;13.488;2022-10-16T12:06:52;30.65;;;29.25;;
13849;SDS011;6995;52.618;13.488;2022-10-16T12:11:51;29.70;;;28.33;;
13849;SDS011;6995;52.618;13.488;2022-10-16T12:16:52;23.42;;;22.33;;
13849;SDS011;6995;52.618;13.488;2022-10-16T12:19:25;20.23;;;19.23;;
13849;SDS011;6995;52.618;13.488;2022-10-16T12:21:54;18.38;;;17.42;;
13849;SDS011;6995;52.618;13.488;2022-10-16T12:24:35;20.05;;;19.05;;
13849;SDS011;6995;52.618;13.488;2022-10-16T12:27:04;18.60;;;17.58;;
13849;SDS011;6995;52.618;13.488;2022-10-16T12:29:38;17.65;;;16.63;;
13849;SDS011;6995;52.618;13.488;2022-10-16T12:32:27;17.45;;;16.50;;
13849;SDS011;6995;52.618;13.488;2022-10-16T12:35:04;18.08;;;17.17;;
13849;SDS011;6995;52.618;13.488;2022-10-16T12:37:33;18.25;;;17.25;;
13849;SDS011;6995;52.618;13.488;2022-10-16T12:40:12;20.02;;;19.05;;
13849;SDS011;6995;52.618;13.488;2022-10-16T12:42:41;23.17;;;22.17;;
13849;SDS011;6995;52.618;13.488;2022-10-16T12:45:40;24.50;;;23.23;;
13849;SDS011;6995;52.618;13.488;2022-10-16T12:48:00;19.48;;;18.48;;
13849;SDS011;6995;52.618;13.488;2022-10-16T12:52:58;21.40;;;20.30;;
13849;SDS011;6995;52.618;13.488;2022-10-16T12:55:25;19.30;;;18.30;;
13849;SDS011;6995;52.618;13.488;2022-10-16T13:00:29;19.75;;;18.20;;
13849;SDS011;6995;52.618;13.488;2022-10-16T13:13:53;17.38;;;16.52;;
13849;SDS011;6995;52.618;13.488;2022-10-16T13:21:59;18.77;;;17.60;;
13849;SDS011;6995;52.618;13.488;2022-10-16T13:24:42;18.25;;;17.33;;
13849;SDS011;6995;52.618;13.488;2022-10-16T13:30:39;19.95;;;18.95;;
13849;SDS011;6995;52.618;13.488;2022-10-16T13:35:56;18.40;;;17.50;;
13849;SDS011;6995;52.618;13.488;2022-10-16T13:41:00;19.77;;;18.73;;
13849;SDS011;6995;52.618;13.488;2022-10-16T13:45:58;20.17;;;19.17;;
13849;SDS011;6995;52.618;13.488;2022-10-16T13:48:25;18.27;;;17.33;;
13849;SDS011;6995;52.618;13.488;2022-10-16T13:51:01;18.10;;;17.25;;
13849;SDS011;6995;52.618;13.488;2022-10-16T13:53:27;18.45;;;17.45;;
13849;SDS011;6995;52.618;13.488;2022-10-16T13:55:56;19.00;;;18.20;;
13849;SDS011;6995;52.618;13.488;2022-10-16T13:58:22;19.25;;;18.25;;
13849;SDS011;6995;52.618;13.488;2022-10-16T14:00:54;17.70;;;16.85;;
13849;SDS011;6995;52.618;13.488;2022-10-16T14:03:24;18.17;;;17.27;;
13849;SDS011;6995;52.618;13.488;2022-10-16T14:05:55;16.48;;;15.77;;
13849;SDS011;6995;52.618;13.488;2022-10-16T14:08:23;17.60;;;16.90;;
13849;SDS011;6995;52.618;13.488;2022-10-16T14:10:51;18.83;;;18.02;;
13849;SDS011;6995;52.618;13.488;2022-10-16T14:13:28;20.30;;;18.95;;
13849;SDS011;6995;52.618;13.488;2022-10-16T14:16:20;20.20;;;19.33;;
13849;SDS011;6995;52.618;13.488;2022-10-16T14:18:58;17.67;;;16.60;;
13849;SDS011;6995;52.618;13.488;2022-10-16T14:21:27;21.63;;;20.52;;
13849;SDS011;6995;52.618;13.488;2022-10-16T14:23:53;22.08;;;21.13;;
13849;SDS011;6995;52.618;13.488;2022-10-16T14:26:22;22.08;;;21.05;;
13849;SDS011;6995;52.618;13.488;2022-10-16T14:29:01;20.83;;;19.92;;
13849;SDS011;6995;52.618;13.488;2022-10-16T14:36:54;20.40;;;19.45;;
13849;SDS011;6995;52.618;13.488;2022-10-16T14:39:21;24.85;;;23.58;;
13849;SDS011;6995;52.618;13.488;2022-10-16T14:41:48;24.48;;;23.17;;
13849;SDS011;6995;52.618;13.488;2022-10-16T14:44:17;20.85;;;19.83;;
13849;SDS011;6995;52.618;13.488;2022-10-16T14:46:43;21.17;;;19.75;;
13849;SDS011;6995;52.618;13.488;2022-10-16T14:51:39;17.25;;;16.13;;
13849;SDS011;6995;52.618;13.488;2022-10-16T14:54:11;19.52;;;18.63;;
13849;SDS011;6995;52.618;13.488;2022-10-16T14:59:17;21.55;;;20.55;;
13849;SDS011;6995;52.618;13.488;2022-10-16T15:01:53;17.25;;;16.45;;
13849;SDS011;6995;52.618;13.488;2022-10-16T15:04:19;22.05;;;20.60;;
13849;SDS011;6995;52.618;13.488;2022-10-16T15:06:45;21.33;;;20.02;;
13849;SDS011;6995;52.618;13.488;2022-10-16T15:09:10;20.95;;;19.90;;
13849;SDS011;6995;52.618;13.488;2022-10-16T15:11:36;21.17;;;19.88;;
13849;SDS011;6995;52.618;13.488;2022-10-16T15:14:02;22.75;;;21.65;;
13849;SDS011;6995;52.618;13.488;2022-10-16T15:16:29;21.98;;;20.77;;
13849;SDS011;6995;52.618;13.488;2022-10-16T15:18:55;23.52;;;22.25;;
13849;SDS011;6995;52.618;13.488;2022-10-16T15:21:25;22.48;;;21.25;;
13849;SDS011;6995;52.618;13.488;2022-10-16T15:23:53;22.00;;;20.70;;
13849;SDS011;6995;52.618;13.488;2022-10-16T15:26:19;21.20;;;20.20;;
13849;SDS011;6995;52.618;13.488;2022-10-16T15:28:45;23.67;;;22.15;;
13849;SDS011;6995;52.618;13.488;2022-10-16T15:31:11;23.35;;;21.77;;
13849;SDS011;6995;52.618;13.488;2022-10-16T15:33:37;23.90;;;22.60;;
13849;SDS011;6995;52.618;13.488;2022-10-16T15:36:03;20.58;;;19.40;;
13849;SDS011;6995;52.618;13.488;2022-10-16T15:38:30;19.77;;;18.65;;
13849;SDS011;6995;52.618;13.488;2022-10-16T15:40:56;20.70;;;19.70;;
13849;SDS011;6995;52.618;13.488;2022-10-16T15:43:21;20.20;;;19.10;;
13849;SDS011;6995;52.618;13.488;2022-10-16T15:45:52;19.77;;;18.77;;
13849;SDS011;6995;52.618;13.488;2022-10-16T15:48:28;21.63;;;20.55;;
13849;SDS011;6995;52.618;13.488;2022-10-16T15:50:54;22.50;;;21.23;;
13849;SDS011;6995;52.618;13.488;2022-10-16T15:53:20;20.00;;;18.90;;
13849;SDS011;6995;52.618;13.488;2022-10-16T15:55:46;21.17;;;19.98;;
13849;SDS011;6995;52.618;13.488;2022-10-16T15:58:11;21.77;;;20.67;;
13849;SDS011;6995;52.618;13.488;2022-10-16T16:00:37;21.65;;;20.50;;
13849;SDS011;6995;52.618;13.488;2022-10-16T16:03:03;22.58;;;21.52;;
13849;SDS011;6995;52.618;13.488;2022-10-16T16:05:29;24.85;;;23.08;;
13849;SDS011;6995;52.618;13.488;2022-10-16T16:07:56;22.23;;;20.92;;
13849;SDS011;6995;52.618;13.488;2022-10-16T16:10:22;23.48;;;22.27;;
13849;SDS011;6995;52.618;13.488;2022-10-16T16:12:48;19.85;;;18.88;;
13849;SDS011;6995;52.618;13.488;2022-10-16T16:15:17;21.90;;;20.50;;
13849;SDS011;6995;52.618;13.488;2022-10-16T16:17:46;19.58;;;18.67;;
13849;SDS011;6995;52.618;13.488;2022-10-16T16:20:12;24.65;;;23.35;;
13849;SDS011;6995;52.618;13.488;2022-10-16T16:22:38;26.70;;;25.13;;
13849;SDS011;6995;52.618;13.488;2022-10-16T16:25:04;23.80;;;22.60;;
13849;SDS011;6995;52.618;13.488;2022-10-16T16:27:30;25.77;;;24.58;;
13849;SDS011;6995;52.618;13.488;2022-10-16T16:29:58;25.60;;;24.10;;
13849;SDS011;6995;52.618;13.488;2022-10-16T16:32:24;23.17;;;22.08;;
13849;SDS011;6995;52.618;13.488;2022-10-16T16:34:50;23.88;;;22.70;;
13849;SDS011;6995;52.618;13.488;2022-10-16T16:37:16;22.13;;;21.08;;
13849;SDS011;6995;52.618;13.488;2022-10-16T16:39:42;22.50;;;21.40;;
13849;SDS011;6995;52.618;13.488;2022-10-16T16:42:07;24.42;;;22.98;;
13849;SDS011;6995;52.618;13.488;2022-10-16T16:44:35;22.25;;;21.17;;
13849;SDS011;6995;52.618;13.488;2022-10-16T16:47:01;22.95;;;21.85;;
13849;SDS011;6995;52.618;13.488;2022-10-16T16:49:31;25.38;;;24.17;;
13849;SDS011;6995;52.618;13.488;2022-10-16T16:51:57;24.83;;;23.55;;
13849;SDS011;6995;52.618;13.488;2022-10-16T16:54:22;23.70;;;22.27;;
13849;SDS011;6995;52.618;13.488;2022-10-16T16:56:48;23.92;;;22.73;;
13849;SDS011;6995;52.618;13.488;2022-10-16T16:59:15;24.25;;;22.75;;
13849;SDS011;6995;52.618;13.488;2022-10-16T17:01:43;22.88;;;21.70;;
13849;SDS011;6995;52.618;13.488;2022-10-16T17:04:09;23.13;;;21.92;;
13849;SDS011;6995;52.618;13.488;2022-10-16T17:06:35;23.27;;;22.08;;
13849;SDS011;6995;52.618;13.488;2022-10-16T17:09:01;23.40;;;21.83;;
13849;SDS011;6995;52.618;13.488;2022-10-16T17:11:29;22.50;;;21.30;;